createdAt,value
2024-05-09T00:00:03.781Z,90.25
2024-05-09T00:01:03.424Z,89.97
2024-05-09T00:02:03.488Z,90.06
2024-05-09T00:03:03.486Z,90.54
2024-05-09T00:04:03.609Z,91.02
2024-05-09T00:05:03.696Z,91.11
2024-05-09T00:06:03.754Z,91.21
2024-05-09T00:07:03.554Z,91.78
2024-05-09T00:08:03.722Z,91.97
2024-05-09T00:09:03.592Z,91.78
2024-05-09T00:10:05.450Z,92.55
2024-05-09T00:11:03.876Z,92.64
2024-05-09T00:12:03.776Z,92.64
2024-05-09T00:13:03.684Z,92.45
2024-05-09T00:14:03.776Z,93.12
2024-05-09T00:15:03.729Z,93.31
2024-05-09T00:16:03.755Z,92.93
2024-05-09T00:17:03.807Z,93.12
2024-05-09T00:18:04.303Z,93.21
2024-05-09T00:19:03.966Z,93.12
2024-05-09T00:20:09.084Z,93.70
2024-05-09T00:21:04.072Z,93.88
2024-05-09T00:22:03.889Z,93.88
2024-05-09T00:23:03.973Z,94.27
2024-05-09T00:24:03.963Z,94.27
2024-05-09T00:25:03.962Z,93.84
2024-05-09T00:26:04.052Z,94.31
2024-05-09T00:27:04.007Z,93.84
2024-05-09T00:28:04.025Z,94.31
2024-05-09T00:29:04.062Z,94.31
2024-05-09T00:30:04.344Z,94.22
2024-05-09T00:31:04.095Z,94.22
2024-05-09T00:32:04.246Z,94.12
2024-05-09T00:33:05.351Z,93.55
2024-05-09T00:34:04.330Z,93.93
2024-05-09T00:35:04.238Z,93.84
2024-05-09T00:36:04.211Z,93.74
2024-05-09T00:37:04.247Z,93.46
2024-05-09T00:38:04.667Z,93.84
2024-05-09T00:39:04.290Z,93.74
2024-05-09T00:40:05.836Z,94.12
2024-05-09T00:41:04.397Z,93.17
2024-05-09T00:42:04.346Z,93.36
2024-05-09T00:43:04.405Z,93.17
2024-05-09T00:44:04.433Z,93.07
2024-05-09T00:45:04.420Z,93.26
2024-05-09T00:46:04.440Z,92.79
2024-05-09T00:47:04.531Z,92.60
2024-05-09T00:48:04.793Z,92.69
2024-05-09T00:49:04.558Z,92.50
2024-05-09T00:50:07.618Z,92.41
2024-05-09T00:51:04.610Z,92.69
2024-05-09T00:52:04.580Z,92.41
2024-05-09T00:53:04.623Z,92.50
2024-05-09T00:54:04.623Z,92.69
2024-05-09T00:55:04.656Z,92.26
2024-05-09T00:56:04.735Z,92.26
2024-05-09T00:57:04.684Z,92.17
2024-05-09T00:58:04.710Z,92.55
2024-05-09T00:59:04.816Z,92.65
2024-05-09T01:00:06.083Z,91.69
2024-05-09T01:01:04.790Z,91.78
2024-05-09T01:02:04.945Z,91.78
2024-05-09T01:03:05.200Z,91.21
2024-05-09T01:04:04.918Z,91.69
2024-05-09T01:05:04.957Z,91.02
2024-05-09T01:06:04.939Z,90.45
2024-05-09T01:07:04.923Z,91.12
2024-05-09T01:08:04.977Z,90.73
2024-05-09T01:09:04.961Z,90.26
2024-05-09T01:10:09.159Z,89.78
2024-05-09T01:11:05.081Z,89.26
2024-05-09T01:12:05.111Z,88.98
2024-05-09T01:13:05.561Z,89.17
2024-05-09T01:14:05.119Z,89.07
2024-05-09T01:15:05.104Z,88.21
2024-05-09T01:16:05.122Z,88.12
2024-05-09T01:17:05.213Z,87.64
2024-05-09T01:18:05.341Z,87.74
2024-05-09T01:19:05.323Z,87.07
2024-05-09T01:21:05.337Z,86.30
2024-05-09T01:22:05.257Z,86.11
2024-05-09T01:23:05.320Z,86.02
2024-05-09T01:24:05.300Z,85.45
2024-05-09T01:25:05.323Z,84.97
2024-05-09T01:26:05.383Z,85.35
2024-05-09T01:27:05.393Z,85.06
2024-05-09T01:28:05.461Z,85.16
2024-05-09T01:29:05.506Z,84.59
2024-05-09T01:30:09.120Z,83.44
2024-05-09T01:31:05.507Z,83.54
2024-05-09T01:32:05.584Z,83.16
2024-05-09T01:33:07.307Z,82.97
2024-05-09T01:34:05.553Z,82.68
2024-05-09T01:35:05.591Z,82.92
2024-05-09T01:36:05.584Z,82.78
2024-05-09T01:37:05.685Z,82.20
2024-05-09T01:38:05.852Z,81.82
2024-05-09T01:39:05.640Z,81.35
2024-05-09T01:41:05.696Z,80.07
2024-05-09T01:42:05.721Z,80.07
2024-05-09T01:43:05.740Z,80.54
2024-05-09T01:44:05.781Z,79.59
2024-05-09T01:45:05.774Z,79.40
2024-05-09T01:46:05.810Z,79.11
2024-05-09T01:47:05.863Z,78.54
2024-05-09T01:48:06.096Z,78.83
2024-05-09T01:49:06.153Z,78.44
2024-05-09T01:50:08.999Z,78.73
2024-05-09T01:51:05.988Z,78.25
2024-05-09T01:52:05.934Z,78.16
2024-05-09T01:53:06.121Z,77.69
2024-05-09T01:54:05.990Z,76.92
2024-05-09T01:55:06.825Z,77.01
2024-05-09T01:56:06.062Z,76.35
2024-05-09T01:57:06.083Z,76.35
2024-05-09T01:58:06.132Z,76.64
2024-05-09T01:59:06.152Z,76.44
2024-05-09T02:00:07.895Z,76.64
2024-05-09T02:01:06.195Z,76.06
2024-05-09T02:02:06.219Z,76.06
2024-05-09T02:03:06.388Z,76.06
2024-05-09T02:04:06.751Z,76.44
2024-05-09T02:05:06.477Z,75.87
2024-05-09T02:06:06.548Z,75.96
2024-05-09T02:07:06.325Z,75.40
2024-05-09T02:08:06.356Z,75.01
2024-05-09T02:09:06.367Z,75.11
2024-05-09T02:10:13.646Z,74.63
2024-05-09T02:11:06.405Z,74.92
2024-05-09T02:12:06.562Z,75.11
2024-05-09T02:13:06.396Z,74.82
2024-05-09T02:14:06.456Z,74.63
2024-05-09T02:15:06.443Z,74.16
2024-05-09T02:16:06.709Z,73.96
2024-05-09T02:17:06.560Z,73.96
2024-05-09T02:18:06.723Z,74.06
2024-05-09T02:19:06.604Z,74.06
2024-05-09T02:20:06.677Z,73.39
2024-05-09T02:21:06.713Z,72.82
2024-05-09T02:22:06.610Z,72.92
2024-05-09T02:23:07.155Z,73.45
2024-05-09T02:24:06.650Z,73.36
2024-05-09T02:25:06.698Z,73.07
2024-05-09T02:26:06.786Z,72.31
2024-05-09T02:27:06.721Z,72.41
2024-05-09T02:28:06.724Z,72.88
2024-05-09T02:29:06.820Z,72.41
2024-05-09T02:30:18.320Z,72.88
2024-05-09T02:31:06.794Z,72.21
2024-05-09T02:32:06.996Z,71.93
2024-05-09T02:33:07.349Z,71.64
2024-05-09T02:34:06.949Z,71.93
2024-05-09T02:35:06.929Z,72.21
2024-05-09T02:36:06.903Z,71.73
2024-05-09T02:37:06.987Z,71.55
2024-05-09T02:38:07.040Z,71.45
2024-05-09T02:39:06.972Z,71.17
2024-05-09T02:40:11.499Z,71.17
2024-05-09T02:41:07.266Z,70.78
2024-05-09T02:42:07.052Z,70.59
2024-05-09T02:43:07.554Z,70.31
2024-05-09T02:44:07.085Z,69.45
2024-05-09T02:45:07.099Z,69.17
2024-05-09T02:46:07.154Z,69.07
2024-05-09T02:47:07.418Z,68.98
2024-05-09T02:48:07.405Z,68.78
2024-05-09T02:49:07.465Z,68.69
2024-05-09T02:50:08.280Z,68.50
2024-05-09T02:51:07.389Z,67.55
2024-05-09T02:52:07.266Z,66.88
2024-05-09T02:53:07.497Z,66.88
2024-05-09T02:54:07.324Z,66.69
2024-05-09T02:55:07.324Z,66.88
2024-05-09T02:56:07.397Z,66.78
2024-05-09T02:57:07.375Z,65.73
2024-05-09T02:58:07.385Z,66.02
2024-05-09T02:59:07.466Z,65.55
2024-05-09T03:00:14.986Z,65.36
2024-05-09T03:01:07.508Z,65.07
2024-05-09T03:02:07.549Z,64.65
2024-05-09T03:03:08.091Z,64.65
2024-05-09T03:04:07.605Z,64.47
2024-05-09T03:05:07.580Z,64.28
2024-05-09T03:06:07.561Z,64.37
2024-05-09T03:07:07.591Z,63.99
2024-05-09T03:08:07.773Z,64.18
2024-05-09T03:09:07.628Z,63.80
2024-05-09T03:10:18.024Z,63.51
2024-05-09T03:11:07.850Z,63.23
2024-05-09T03:12:07.802Z,62.65
2024-05-09T03:13:07.807Z,62.27
2024-05-09T03:14:07.763Z,62.08
2024-05-09T03:15:07.755Z,61.90
2024-05-09T03:16:07.789Z,61.80
2024-05-09T03:17:07.880Z,61.22
2024-05-09T03:18:08.093Z,61.22
2024-05-09T03:19:07.936Z,60.75
2024-05-09T03:20:17.012Z,60.94
2024-05-09T03:21:07.951Z,60.85
2024-05-09T03:22:07.910Z,60.08
2024-05-09T03:23:09.219Z,60.08
2024-05-09T03:24:07.952Z,60.27
2024-05-09T03:25:07.973Z,60.18
2024-05-09T03:26:08.044Z,59.51
2024-05-09T03:27:08.051Z,59.61
2024-05-09T03:28:08.055Z,59.61
2024-05-09T03:29:08.147Z,58.65
2024-05-09T03:30:09.935Z,58.75
2024-05-09T03:31:08.117Z,59.03
2024-05-09T03:32:08.208Z,59.03
2024-05-09T03:33:08.446Z,58.47
2024-05-09T03:34:08.249Z,57.99
2024-05-09T03:35:08.259Z,58.18
2024-05-09T03:36:10.551Z,59.03
2024-05-09T03:37:08.236Z,58.08
2024-05-09T03:38:08.325Z,58.44
2024-05-09T03:39:08.278Z,57.99
2024-05-09T03:40:11.928Z,57.23
2024-05-09T03:41:08.340Z,56.56
2024-05-09T03:42:08.344Z,57.04
2024-05-09T03:43:08.366Z,56.18
2024-05-09T03:44:08.494Z,54.75
2024-05-09T03:45:08.410Z,54.44
2024-05-09T03:46:08.436Z,53.70
2024-05-09T03:47:08.501Z,53.80
2024-05-09T03:48:09.024Z,53.23
2024-05-09T03:49:08.576Z,53.99
2024-05-09T03:50:17.937Z,53.67
2024-05-09T03:51:08.746Z,53.32
2024-05-09T03:52:08.562Z,53.23
2024-05-09T03:53:08.653Z,52.75
2024-05-09T03:54:08.605Z,52.94
2024-05-09T03:55:08.631Z,52.84
2024-05-09T03:56:08.678Z,52.66
2024-05-09T03:57:08.677Z,52.09
2024-05-09T03:58:08.752Z,51.51
2024-05-09T03:59:08.724Z,51.32
2024-05-09T04:00:17.741Z,51.32
2024-05-09T04:01:08.771Z,51.70
2024-05-09T04:02:08.894Z,50.94
2024-05-09T04:03:11.309Z,50.85
2024-05-09T04:04:09.010Z,51.32
2024-05-09T04:05:08.874Z,50.75
2024-05-09T04:06:08.876Z,50.66
2024-05-09T04:07:08.884Z,50.66
2024-05-09T04:08:09.121Z,50.66
2024-05-09T04:09:08.931Z,50.68
2024-05-09T04:10:13.880Z,51.06
2024-05-09T04:11:09.029Z,51.16
2024-05-09T04:12:09.096Z,51.76
2024-05-09T04:13:09.018Z,52.90
2024-05-09T04:14:09.088Z,54.61
2024-05-09T04:15:12.836Z,55.79
2024-05-09T04:16:09.084Z,57.89
2024-05-09T04:17:09.179Z,60.55
2024-05-09T04:18:09.294Z,64.50
2024-05-09T04:19:09.269Z,66.69
2024-05-09T04:20:15.188Z,69.74
2024-05-09T04:21:09.318Z,72.64
2024-05-09T04:22:09.216Z,75.60
2024-05-09T04:23:09.676Z,78.51
2024-05-09T04:24:09.259Z,83.57
2024-05-09T04:25:09.283Z,84.72
2024-05-09T04:26:09.335Z,86.67
2024-05-09T04:27:09.346Z,89.73
2024-05-09T04:28:09.367Z,90.63
2024-05-09T04:29:09.453Z,92.45
2024-05-09T04:30:15.465Z,93.69
2024-05-09T04:31:09.431Z,95.03
2024-05-09T04:32:09.546Z,95.70
2024-05-09T04:33:11.857Z,97.37
2024-05-09T04:34:09.671Z,96.89
2024-05-09T04:35:09.541Z,96.99
2024-05-09T04:36:09.546Z,96.89
2024-05-09T04:37:09.567Z,97.37
2024-05-09T04:38:09.666Z,97.28
2024-05-09T04:39:09.614Z,97.37
2024-05-09T04:40:17.191Z,97.42
2024-05-09T04:41:09.711Z,97.33
2024-05-09T04:42:09.701Z,96.94
2024-05-09T04:43:09.704Z,96.99
2024-05-09T04:44:09.730Z,96.99
2024-05-09T04:45:09.761Z,96.32
2024-05-09T04:46:09.779Z,95.94
2024-05-09T04:47:09.823Z,95.31
2024-05-09T04:48:10.025Z,95.22
2024-05-09T04:49:09.930Z,94.98
2024-05-09T04:50:11.882Z,94.93
2024-05-09T04:51:10.090Z,94.26
2024-05-09T04:52:09.931Z,93.88
2024-05-09T04:53:11.257Z,93.88
2024-05-09T04:54:15.678Z,94.17
2024-05-09T04:55:10.004Z,93.98
2024-05-09T04:56:10.198Z,93.88
2024-05-09T04:57:10.048Z,93.26
2024-05-09T04:58:10.105Z,92.97
2024-05-09T04:59:10.132Z,92.39
2024-05-09T05:00:14.869Z,92.30
2024-05-09T05:01:10.182Z,92.01
2024-05-09T05:02:10.258Z,91.24
2024-05-09T05:03:12.435Z,91.10
2024-05-09T05:04:10.272Z,91.00
2024-05-09T05:05:11.716Z,91.39
2024-05-09T05:06:10.352Z,91.44
2024-05-09T05:07:10.305Z,92.21
2024-05-09T05:08:10.359Z,93.26
2024-05-09T05:09:10.345Z,94.12
2024-05-09T05:10:14.861Z,94.02
2024-05-09T05:11:10.430Z,94.12
2024-05-09T05:12:10.543Z,94.40
2024-05-09T05:13:10.452Z,95.27
2024-05-09T05:14:10.508Z,95.17
2024-05-09T05:15:10.504Z,95.22
2024-05-09T05:16:10.526Z,94.93
2024-05-09T05:17:10.598Z,94.40
2024-05-09T05:18:10.711Z,94.50
2024-05-09T05:19:12.712Z,94.60
2024-05-09T05:20:15.202Z,94.31
2024-05-09T05:21:10.678Z,94.79
2024-05-09T05:22:10.683Z,94.55
2024-05-09T05:23:10.806Z,95.03
2024-05-09T05:24:10.730Z,95.03
2024-05-09T05:25:10.760Z,95.03
2024-05-09T05:26:10.809Z,96.42
2024-05-09T05:27:10.809Z,96.22
2024-05-09T05:28:10.892Z,95.56
2024-05-09T05:29:10.883Z,95.65
2024-05-09T05:30:17.579Z,95.94
2024-05-09T05:31:10.922Z,96.42
2024-05-09T05:32:11.009Z,96.22
2024-05-09T05:33:11.147Z,96.13
2024-05-09T05:34:11.010Z,96.32
2024-05-09T05:35:11.049Z,96.13
2024-05-09T05:36:11.045Z,96.13
2024-05-09T05:37:11.060Z,96.22
2024-05-09T05:38:11.366Z,96.22
2024-05-09T05:39:11.114Z,96.32
2024-05-09T05:40:14.648Z,96.22
2024-05-09T05:41:11.244Z,95.98
2024-05-09T05:42:11.195Z,96.08
2024-05-09T05:43:11.329Z,95.79
2024-05-09T05:44:11.293Z,96.27
2024-05-09T05:45:11.266Z,96.18
2024-05-09T05:46:11.294Z,96.27
2024-05-09T05:47:11.374Z,96.47
2024-05-09T05:48:11.561Z,96.47
2024-05-09T05:49:11.500Z,96.37
2024-05-09T05:50:20.773Z,96.75
2024-05-09T05:51:11.479Z,96.27
2024-05-09T05:52:11.439Z,96.37
2024-05-09T05:53:11.523Z,96.27
2024-05-09T05:54:11.509Z,96.56
2024-05-09T05:55:11.515Z,96.47
2024-05-09T05:56:11.577Z,96.22
2024-05-09T05:57:11.567Z,96.99
2024-05-09T05:58:11.614Z,96.84
2024-05-09T05:59:13.399Z,96.61
2024-05-09T06:00:18.051Z,97.42
2024-05-09T06:01:11.697Z,96.08
2024-05-09T06:02:11.757Z,94.98
2024-05-09T06:03:12.496Z,93.63
2024-05-09T06:04:11.884Z,92.63
2024-05-09T06:05:11.895Z,91.66
2024-05-09T06:06:11.873Z,91.13
2024-05-09T06:07:11.832Z,89.50
2024-05-09T06:08:12.197Z,88.20
2024-05-09T06:09:11.879Z,86.71
2024-05-09T06:10:17.591Z,86.04
2024-05-09T06:11:12.084Z,84.92
2024-05-09T06:12:12.123Z,83.48
2024-05-09T06:13:12.399Z,81.98
2024-05-09T06:14:12.066Z,80.25
2024-05-09T06:15:12.081Z,78.27
2024-05-09T06:16:12.092Z,77.59
2024-05-09T06:17:12.284Z,76.57
2024-05-09T06:18:12.818Z,76.28
2024-05-09T06:19:12.354Z,75.74
2024-05-09T06:20:20.236Z,74.78
2024-05-09T06:21:12.315Z,73.37
2024-05-09T06:22:12.255Z,72.89
2024-05-09T06:23:12.941Z,72.02
2024-05-09T06:24:12.314Z,71.28
2024-05-09T06:25:12.344Z,70.61
2024-05-09T06:26:12.402Z,69.84
2024-05-09T06:27:12.411Z,68.29
2024-05-09T06:28:12.433Z,68.19
2024-05-09T06:29:12.517Z,67.62
2024-05-09T06:30:21.197Z,67.52
2024-05-09T06:31:12.528Z,67.52
2024-05-09T06:32:12.665Z,66.66
2024-05-09T06:33:14.777Z,67.62
2024-05-09T06:34:12.816Z,67.43
2024-05-09T06:35:12.673Z,67.62
2024-05-09T06:36:12.721Z,67.27
2024-05-09T06:37:12.710Z,66.46
2024-05-09T06:38:12.986Z,65.88
2024-05-09T06:39:12.776Z,67.20
2024-05-09T06:40:17.372Z,66.82
2024-05-09T06:41:12.871Z,66.30
2024-05-09T06:42:12.868Z,66.91
2024-05-09T06:43:13.035Z,66.91
2024-05-09T06:44:12.967Z,67.20
2024-05-09T06:45:12.962Z,66.91
2024-05-09T06:46:12.995Z,66.91
2024-05-09T06:47:13.090Z,67.23
2024-05-09T06:48:20.749Z,67.52
2024-05-09T06:50:23.833Z,67.81
2024-05-09T06:51:17.335Z,67.91
2024-05-09T06:53:21.348Z,65.82
2024-05-09T06:54:21.184Z,66.01
2024-05-09T06:56:25.762Z,65.50
2024-05-09T06:57:25.747Z,65.11
2024-05-09T06:58:25.774Z,65.11
2024-05-09T06:59:25.970Z,64.53
2024-05-09T07:00:34.568Z,64.72
2024-05-09T07:01:25.973Z,64.89
2024-05-09T07:02:25.971Z,64.40
2024-05-09T07:03:26.112Z,64.59
2024-05-09T07:04:26.162Z,65.37
2024-05-09T07:05:26.240Z,66.14
2024-05-09T07:06:26.041Z,66.91
2024-05-09T07:07:26.068Z,67.00
2024-05-09T07:08:26.181Z,67.10
2024-05-09T07:09:26.153Z,67.00
2024-05-09T07:10:32.797Z,66.91
2024-05-09T07:11:26.288Z,67.30
2024-05-09T07:12:26.387Z,67.36
2024-05-09T07:13:26.263Z,67.23
2024-05-09T07:14:26.374Z,68.10
2024-05-09T07:15:26.342Z,69.25
2024-05-09T07:16:26.373Z,69.79
2024-05-09T07:17:26.545Z,70.18
2024-05-09T07:18:26.649Z,70.24
2024-05-09T07:19:26.519Z,70.53
2024-05-09T07:20:34.057Z,71.11
2024-05-09T07:21:26.591Z,72.55
2024-05-09T07:22:26.575Z,73.03
2024-05-09T07:23:26.613Z,72.94
2024-05-09T07:24:26.606Z,72.74
2024-05-09T07:25:26.635Z,72.90
2024-05-09T07:26:26.754Z,72.71
2024-05-09T07:27:26.709Z,74.25
2024-05-09T07:28:26.721Z,74.92
2024-05-09T07:29:26.951Z,75.02
2024-05-09T07:30:32.889Z,75.11
2024-05-09T07:31:26.814Z,75.49
2024-05-09T07:32:27.138Z,75.37
2024-05-09T07:33:27.194Z,75.17
2024-05-09T07:34:27.046Z,76.23
2024-05-09T07:35:27.259Z,76.71
2024-05-09T07:36:26.968Z,77.29
2024-05-09T07:37:26.989Z,76.86
2024-05-09T07:38:27.053Z,77.63
2024-05-09T07:39:27.064Z,78.59
2024-05-09T07:40:32.892Z,80.51
2024-05-09T07:41:27.215Z,81.48
2024-05-09T07:42:27.128Z,81.13
2024-05-09T07:43:27.170Z,80.46
2024-05-09T07:44:27.266Z,80.84
2024-05-09T07:45:44.941Z,81.19
2024-05-09T07:47:36.454Z,80.51
2024-05-09T07:50:00.261Z,80.94
2024-05-09T07:53:39.739Z,83.44
2024-05-09T07:54:27.522Z,82.86
2024-05-09T07:55:27.819Z,81.13
2024-05-09T07:56:28.110Z,81.32
2024-05-09T07:57:27.604Z,81.42
2024-05-09T07:58:27.927Z,82.48
2024-05-09T07:59:27.611Z,82.19
2024-05-09T08:00:31.463Z,81.13
2024-05-09T08:01:27.857Z,80.84
2024-05-09T08:02:27.877Z,80.75
2024-05-09T08:03:27.821Z,80.27
2024-05-09T08:04:27.815Z,80.27
2024-05-09T08:05:28.043Z,81.23
2024-05-09T08:06:27.848Z,81.23
2024-05-09T08:07:27.827Z,83.63
2024-05-09T08:08:27.864Z,82.57
2024-05-09T08:09:27.908Z,81.42
2024-05-09T08:10:29.207Z,80.30
2024-05-09T08:11:28.000Z,79.63
2024-05-09T08:12:27.977Z,79.05
2024-05-09T08:13:28.005Z,78.73
2024-05-09T08:14:28.022Z,79.79
2024-05-09T08:15:28.209Z,80.60
2024-05-09T08:16:28.117Z,80.88
2024-05-09T08:17:28.243Z,81.56
2024-05-09T08:18:28.325Z,82.14
2024-05-09T08:19:28.198Z,80.98
2024-05-09T08:20:31.328Z,80.44
2024-05-09T08:21:28.255Z,80.21
2024-05-09T08:22:28.243Z,79.86
2024-05-09T08:23:28.275Z,79.05
2024-05-09T08:24:28.328Z,79.82
2024-05-09T08:25:28.391Z,80.02
2024-05-09T08:26:28.353Z,78.33
2024-05-09T08:27:28.468Z,77.04
2024-05-09T08:28:28.440Z,76.75
2024-05-09T08:29:28.435Z,76.17
2024-05-09T08:30:33.253Z,76.17
2024-05-09T08:31:28.635Z,76.07
2024-05-09T08:32:28.643Z,75.11
2024-05-09T08:33:28.823Z,74.34
2024-05-09T08:34:28.752Z,73.71
2024-05-09T08:35:28.609Z,73.32
2024-05-09T08:36:28.692Z,72.45
2024-05-09T08:37:32.838Z,71.36
2024-05-09T08:38:28.688Z,70.50
2024-05-09T08:39:28.792Z,70.50
2024-05-09T08:40:34.431Z,70.53
2024-05-09T08:41:28.766Z,71.11
2024-05-09T08:42:28.867Z,72.17
2024-05-09T08:43:28.857Z,72.65
2024-05-09T08:44:28.857Z,72.36
2024-05-09T08:45:28.932Z,72.45
2024-05-09T08:46:29.006Z,72.45
2024-05-09T08:47:29.148Z,72.36
2024-05-09T08:48:29.268Z,71.49
2024-05-09T08:49:29.128Z,71.69
2024-05-09T08:50:36.334Z,72.26
2024-05-09T08:51:29.066Z,72.45
2024-05-09T08:52:29.083Z,72.36
2024-05-09T08:53:29.107Z,72.26
2024-05-09T08:54:29.208Z,72.36
2024-05-09T08:55:29.168Z,72.55
2024-05-09T08:56:29.188Z,72.36
2024-05-09T08:57:29.256Z,71.88
2024-05-09T08:58:29.248Z,72.26
2024-05-09T08:59:29.276Z,72.65
2024-05-09T09:00:36.195Z,72.07
2024-05-09T09:01:29.359Z,72.36
2024-05-09T09:02:29.414Z,71.78
2024-05-09T09:03:29.804Z,72.97
2024-05-09T09:04:29.546Z,72.17
2024-05-09T09:05:29.600Z,70.24
2024-05-09T09:06:29.532Z,69.95
2024-05-09T09:07:29.548Z,69.76
2024-05-09T09:08:29.529Z,68.99
2024-05-09T09:09:29.603Z,69.76
2024-05-09T09:10:32.290Z,68.90
2024-05-09T09:11:29.657Z,68.60
2024-05-09T09:12:29.733Z,68.22
2024-05-09T09:13:29.687Z,67.51
2024-05-09T09:14:29.694Z,68.13
2024-05-09T09:15:29.768Z,67.99
2024-05-09T09:16:29.806Z,68.80
2024-05-09T09:17:29.866Z,68.70
2024-05-09T09:18:30.068Z,69.85
2024-05-09T09:19:29.851Z,70.72
2024-05-09T09:20:36.188Z,71.11
2024-05-09T09:21:29.944Z,70.53
2024-05-09T09:22:29.914Z,70.86
2024-05-09T09:23:30.437Z,71.04
2024-05-09T09:24:30.037Z,70.56
2024-05-09T09:25:30.046Z,69.70
2024-05-09T09:26:30.026Z,69.79
2024-05-09T09:27:30.126Z,69.31
2024-05-09T09:28:30.237Z,70.12
2024-05-09T09:29:30.107Z,70.70
2024-05-09T09:30:36.600Z,70.12
2024-05-09T09:31:30.218Z,68.10
2024-05-09T09:32:30.329Z,67.81
2024-05-09T09:33:30.326Z,67.71
2024-05-09T09:34:30.397Z,66.17
2024-05-09T09:35:30.288Z,65.30
2024-05-09T09:36:30.374Z,64.92
2024-05-09T09:37:30.339Z,64.34
2024-05-09T09:38:30.363Z,63.28
2024-05-09T09:39:30.459Z,63.28
2024-05-09T09:40:32.956Z,63.34
2024-05-09T09:41:30.448Z,64.02
2024-05-09T09:42:30.517Z,64.79
2024-05-09T09:43:30.504Z,64.79
2024-05-09T09:44:30.542Z,64.86
2024-05-09T09:45:30.593Z,64.18
2024-05-09T09:46:30.614Z,64.18
2024-05-09T09:47:30.781Z,64.86
2024-05-09T09:48:30.922Z,65.46
2024-05-09T09:49:30.699Z,65.17
2024-05-09T09:50:34.487Z,65.56
2024-05-09T09:51:30.779Z,65.94
2024-05-09T09:52:30.781Z,65.98
2024-05-09T09:53:30.779Z,67.71
2024-05-09T09:54:30.890Z,67.52
2024-05-09T09:55:30.867Z,67.81
2024-05-09T09:56:30.880Z,67.55
2024-05-09T09:57:30.932Z,67.74
2024-05-09T09:58:30.980Z,67.16
2024-05-09T09:59:30.962Z,66.49
2024-05-09T10:00:33.500Z,65.91
2024-05-09T10:01:31.089Z,66.30
2024-05-09T10:02:31.193Z,65.24
2024-05-09T10:03:31.214Z,64.66
2024-05-09T10:04:31.182Z,63.79
2024-05-09T10:05:31.384Z,63.79
2024-05-09T10:06:31.189Z,64.37
2024-05-09T10:07:31.185Z,64.95
2024-05-09T10:08:31.210Z,66.11
2024-05-09T10:09:31.308Z,66.82
2024-05-09T10:10:32.925Z,65.17
2024-05-09T10:11:32.871Z,64.47
2024-05-09T10:12:31.464Z,64.66
2024-05-09T10:13:31.410Z,65.14
2024-05-09T10:14:31.378Z,65.56
2024-05-09T10:15:31.493Z,65.66
2024-05-09T10:16:31.511Z,66.04
2024-05-09T10:17:31.563Z,66.94
2024-05-09T10:18:34.110Z,66.17
2024-05-09T10:19:31.652Z,66.08
2024-05-09T10:20:32.851Z,65.20
2024-05-09T10:21:31.644Z,64.92
2024-05-09T10:22:31.655Z,63.57
2024-05-09T10:23:31.654Z,64.05
2024-05-09T10:24:31.702Z,63.95
2024-05-09T10:25:31.743Z,65.20
2024-05-09T10:26:31.733Z,65.11
2024-05-09T10:27:31.779Z,65.11
2024-05-09T10:28:31.836Z,63.76
2024-05-09T10:29:31.822Z,62.12
2024-05-09T10:30:35.975Z,61.35
2024-05-09T10:31:31.911Z,60.58
2024-05-09T10:32:32.002Z,60.28
2024-05-09T10:33:32.076Z,60.10
2024-05-09T10:34:32.035Z,60.28
2024-05-09T10:35:31.986Z,60.26
2024-05-09T10:36:32.096Z,60.83
2024-05-09T10:37:32.096Z,60.58
2024-05-09T10:38:32.078Z,61.03
2024-05-09T10:39:32.123Z,60.26
2024-05-09T10:40:32.331Z,59.48
2024-05-09T10:41:32.164Z,60.06
2024-05-09T10:42:32.216Z,60.16
2024-05-09T10:43:32.223Z,59.78
2024-05-09T10:44:32.252Z,60.64
2024-05-09T10:45:32.326Z,61.32
2024-05-09T10:46:32.302Z,61.16
2024-05-09T10:47:32.586Z,60.35
2024-05-09T10:48:32.585Z,60.28
2024-05-09T10:49:32.470Z,62.12
2024-05-09T10:50:34.443Z,62.31
2024-05-09T10:51:32.549Z,63.40
2024-05-09T10:52:32.491Z,62.92
2024-05-09T10:53:32.583Z,62.44
2024-05-09T10:54:32.666Z,62.37
2024-05-09T10:55:32.609Z,62.86
2024-05-09T10:56:32.596Z,63.47
2024-05-09T10:57:32.690Z,63.56
2024-05-09T10:58:32.665Z,63.28
2024-05-09T10:59:32.684Z,62.44
2024-05-09T11:00:36.104Z,61.57
2024-05-09T11:01:32.844Z,59.53
2024-05-09T11:02:33.042Z,59.34
2024-05-09T11:03:33.016Z,59.44
2024-05-09T11:04:32.938Z,58.18
2024-05-09T11:05:33.638Z,56.41
2024-05-09T11:06:32.966Z,56.22
2024-05-09T11:07:32.951Z,56.32
2024-05-09T11:08:33.072Z,56.90
2024-05-09T11:09:33.021Z,56.41
2024-05-09T11:10:34.494Z,56.13
2024-05-09T11:11:33.091Z,55.93
2024-05-09T11:12:33.134Z,55.74
2024-05-09T11:13:33.111Z,55.26
2024-05-09T11:14:33.139Z,55.07
2024-05-09T11:15:33.244Z,54.68
2024-05-09T11:16:33.205Z,55.45
2024-05-09T11:17:33.271Z,55.74
2024-05-09T11:18:36.727Z,56.13
2024-05-09T11:19:33.366Z,55.93
2024-05-09T11:20:35.267Z,56.22
2024-05-09T11:21:33.393Z,57.29
2024-05-09T11:22:33.387Z,58.47
2024-05-09T11:23:33.426Z,57.31
2024-05-09T11:24:33.491Z,56.15
2024-05-09T11:25:33.475Z,57.51
2024-05-09T11:26:33.506Z,57.03
2024-05-09T11:27:33.591Z,56.05
2024-05-09T11:28:33.591Z,56.54
2024-05-09T11:29:33.606Z,56.90
2024-05-09T11:30:33.662Z,56.51
2024-05-09T11:31:33.799Z,56.71
2024-05-09T11:32:33.872Z,57.21
2024-05-09T11:33:33.785Z,56.41
2024-05-09T11:34:33.909Z,56.51
2024-05-09T11:35:33.810Z,56.13
2024-05-09T11:36:33.868Z,56.03
2024-05-09T11:37:36.819Z,56.51
2024-05-09T11:38:33.898Z,56.22
2024-05-09T11:39:33.976Z,56.03
2024-05-09T11:40:34.696Z,56.90
2024-05-09T11:41:33.965Z,56.03
2024-05-09T11:42:34.019Z,56.03
2024-05-09T11:43:34.094Z,56.41
2024-05-09T11:44:34.079Z,56.32
2024-05-09T11:45:34.296Z,56.71
2024-05-09T11:46:34.140Z,56.39
2024-05-09T11:47:34.256Z,56.22
2024-05-09T11:48:34.513Z,56.32
2024-05-09T11:49:34.302Z,56.99
2024-05-09T11:50:35.976Z,56.41
2024-05-09T11:51:34.350Z,56.41
2024-05-09T11:52:34.300Z,56.32
2024-05-09T11:53:34.338Z,56.32
2024-05-09T11:54:34.384Z,56.41
2024-05-09T11:55:34.418Z,56.51
2024-05-09T11:56:34.422Z,55.65
2024-05-09T11:57:34.468Z,55.04
2024-05-09T11:58:34.764Z,55.04
2024-05-09T11:59:34.517Z,55.33
2024-05-09T12:00:37.297Z,55.13
2024-05-09T12:01:34.667Z,55.13
2024-05-09T12:02:34.730Z,55.71
2024-05-09T12:03:34.908Z,55.68
2024-05-09T12:04:34.755Z,56.26
2024-05-09T12:05:34.951Z,56.68
2024-05-09T12:06:34.777Z,56.36
2024-05-09T12:07:34.754Z,56.48
2024-05-09T12:08:34.808Z,56.16
2024-05-09T12:09:34.929Z,56.46
2024-05-09T12:10:36.336Z,57.26
2024-05-09T12:11:34.880Z,56.77
2024-05-09T12:12:37.248Z,56.84
2024-05-09T12:13:35.014Z,56.07
2024-05-09T12:14:34.965Z,56.36
2024-05-09T12:15:35.021Z,56.77
2024-05-09T12:16:35.096Z,56.46
2024-05-09T12:17:35.173Z,56.26
2024-05-09T12:18:35.135Z,56.65
2024-05-09T12:19:35.142Z,57.04
2024-05-09T12:20:38.402Z,57.23
2024-05-09T12:21:35.214Z,57.20
2024-05-09T12:22:35.199Z,57.29
2024-05-09T12:23:35.236Z,57.68
2024-05-09T12:24:35.292Z,58.07
2024-05-09T12:25:35.301Z,58.77
2024-05-09T12:26:35.313Z,58.48
2024-05-09T12:27:35.434Z,58.29
2024-05-09T12:28:35.376Z,58.58
2024-05-09T12:29:38.249Z,58.39
2024-05-09T12:30:38.975Z,58.58
2024-05-09T12:31:35.536Z,59.93
2024-05-09T12:32:35.544Z,59.35
2024-05-09T12:33:35.603Z,59.55
2024-05-09T12:34:35.666Z,59.19
2024-05-09T12:35:35.588Z,60.13
2024-05-09T12:36:35.652Z,58.61
2024-05-09T12:37:35.687Z,58.32
2024-05-09T12:38:35.672Z,58.32
2024-05-09T12:39:35.752Z,58.70
2024-05-09T12:40:38.222Z,58.61
2024-05-09T12:41:35.766Z,59.38
2024-05-09T12:42:35.850Z,59.41
2024-05-09T12:43:35.863Z,59.22
2024-05-09T12:44:35.854Z,58.83
2024-05-09T12:45:36.085Z,57.96
2024-05-09T12:46:35.945Z,57.09
2024-05-09T12:47:35.985Z,57.29
2024-05-09T12:48:36.119Z,56.99
2024-05-09T12:49:36.196Z,56.61
2024-05-09T12:50:36.558Z,56.90
2024-05-09T12:51:36.124Z,57.26
2024-05-09T12:52:36.087Z,57.87
2024-05-09T12:53:36.120Z,58.32
2024-05-09T12:54:36.203Z,58.32
2024-05-09T12:55:44.099Z,59.31
2024-05-09T12:56:36.225Z,58.61
2024-05-09T12:57:36.280Z,58.03
2024-05-09T12:58:36.272Z,56.96
2024-05-09T12:59:36.299Z,56.68
2024-05-09T13:00:36.541Z,56.68
2024-05-09T13:01:36.460Z,56.74
2024-05-09T13:02:36.544Z,56.26